Brownsville South Padre Island International Airport
KBRO : rendu visible

Aérodrome :











RETROUVEZ-NOUS SUR...

 
LOGIN :

S'inscrire | Disclaimer

   EN    FR    IT 

 









Légende :    VFR   VFR Marginal   IFR   IFR Intensif   IFR Très Intensif
Visi : 
Plafond : 
>= 8 km
>= 3000ft
5 à 8 km
1000 à 3000 ft
1500m à 5 km
500 à 1000 ft
800 à 1500m
200 à 500 ft
< 800m
< 200 ft
Symboles :   Orages  Brouillard  Fortes neiges  Fortes précipitations  Vent > 20 kt






- Altitude de l'aérodrome : 22 ft
- Code IATA : BRO


KBRO - Brownsville South Padre Island International

DERNIER METAR :
  • 100653Z AUTO 18009KT 10SM FEW012 BKN018 OVC030 23/21 A2981 RMK AO2 SLP094 T02330211

METARs EXPIRÉS :
  • 100637Z AUTO 18009KT 10SM SCT016 SCT020 OVC030 23/21 A2981 RMK AO2 T02330211
  • 100603Z AUTO 18011KT 10SM SCT021 BKN026 23/21 A2981 RMK AO2 T02330211
  • 100553Z AUTO 18010KT 10SM SCT026 23/21 A2981 RMK AO2 SLP092 T02330211 10244 20222 402830217 55003
  • 100453Z 17012KT 10SM CLR 23/21 A2980 RMK AO2 SLP090 T02280206
  • 100409Z 16010KT 10SM SCT028 23/21 A2981 RMK AO2 T02280206

TAF KBRO
Valide du 10 à 06h jusqu'au 11 à 06h UTC


100520Z 1006/1106 17012KT P6SM SKC
FM100800 18015G23KT P6SM BKN020
TEMPO 1012/1013 4SM -SHRA
FM101300 21009KT 6SM BR BKN020
TEMPO 1013/1017 4SM -SHRA
FM101800 35019G28KT P6SM OVC008
PROB30 1018/1024 4SM -SHRA OVC005
FM110000 35019G28KT P6SM SCT012



MET'MAP, la Météo Aéronautique d'un coup d'oeil ! - Copyright ORBIFLY Décembre 2007 - Disclaimer

ORBIFLY MET'MAP TEAM :

Programmation & Développement : Alexandra Zaïnal
Sur une idée originale de : Baudouin d'Aumeries
Assistance à la programmation : Marc-Olivier Méhu
Soutien technique & logistique : Manuel Goepfert

Contact : metmap@orbifly.com




SOURCES & CREDITS :

   NOAA       Earth
Advisory